Esmond, South Dakota
Current Conditions -  °F | °C
As of 12:55 PM on Tuesday 21 Oct 2014 (Local Time) from KHON Reporting Station
Clear Clear  
Wind Chill: 22°   Ceiling: Unl
Heat Index: 22°   Visibility: 10mi
Dew Point:   Wind: 16mph
Humidity: 35%   Direction: 170°S
Pressure: 29.92"   Gusts: 25mph
Location:  44.3062°N, 97.8068°W
Report Text: KHON 211755Z AUTO 17014G22KT 10SM CLR 22/06 A2992 RMK AO2 SLP132 T02220061 10222 20100 58015
Loading
Personal Weather Stations






























Interactive Weather Map
Tropical Storm Tracking
New forecast layout! Learn more

10-Day Weather Forecast

Advertisements
Track Severe Weather on mobile